Time;durP1;ratioP1;P1;durP2;ratioP2;P2;SDS_P1;SDS_P2;PMS_P1;PMS_P2;Temp;Humidity;BMP_temperature;BMP_pressure;BME280_temperature;BME280_humidity;BME280_pressure;Samples;Min_cycle;Max_cycle;Signal;HPM_P1;HPM_P2
2022/09/21 00:02:30;;;;;;;8.00;2.57;;;;;;;;;;4974508;28;20461;-52
2022/09/21 00:04:59;;;;;;;6.97;2.43;;;;;;;;;;4965413;28;20437;-52
2022/09/21 00:07:26;;;;;;;6.10;2.30;;;;;;;;;;4960384;28;21002;-53
2022/09/21 00:10:06;;;;;;;3.07;2.67;;;;;;;;;;4968566;28;20473;-53
2022/09/21 00:13:03;;;;;;;5.63;2.53;;;;;;;;;;4970517;28;20450;-52
2022/09/21 00:15:29;;;;;;;5.23;3.17;;;;;;;;;;4969895;28;20452;-53
2022/09/21 00:18:00;;;;;;;4.93;2.93;;;;;;;;;;4975216;28;20433;-52
2022/09/21 00:20:29;;;;;;;3.27;2.57;;;;;;;;;;4967598;28;21106;-52
2022/09/21 00:22:56;;;;;;;3.00;2.63;;;;;;;;;;4953210;28;20936;-52
2022/09/21 00:25:22;;;;;;;3.80;2.77;;;;;;;;;;4966683;28;20971;-53
2022/09/21 00:27:53;;;;;;;3.93;2.67;;;;;;;;;;4969465;28;20452;-52
2022/09/21 00:30:19;;;;;;;3.30;2.40;;;;;;;;;;4979206;28;20488;-53
2022/09/21 00:33:20;;;;;;;3.80;2.40;;;;;;;;;;4977426;28;20500;-52
2022/09/21 00:35:46;;;;;;;3.47;2.53;;;;;;;;;;4953288;28;20449;-52
2022/09/21 00:38:43;;;;;;;3.47;2.40;;;;;;;;;;4985012;28;20463;-54
2022/09/21 00:41:11;;;;;;;6.40;1.97;;;;;;;;;;4980388;28;20574;-51
2022/09/21 00:43:39;;;;;;;3.90;3.30;;;;;;;;;;4964400;28;20463;-54
2022/09/21 00:46:17;;;;;;;2.60;2.40;;;;;;;;;;4972363;28;20469;-52
2022/09/21 00:48:45;;;;;;;4.90;3.20;;;;;;;;;;4978063;28;20442;-54
2022/09/21 00:51:33;;;;;;;4.03;2.47;;;;;;;;;;4978481;28;20612;-55
2022/09/21 00:54:33;;;;;;;3.00;1.90;;;;;;;;;;4972516;28;20445;-54
2022/09/21 00:57:03;;;;;;;4.07;2.47;;;;;;;;;;4978630;28;20485;-53
2022/09/21 00:59:32;;;;;;;4.03;2.90;;;;;;;;;;4974812;28;20441;-52
2022/09/21 01:01:58;;;;;;;4.73;2.43;;;;;;;;;;4977259;28;20926;-53
2022/09/21 01:04:25;;;;;;;4.00;2.63;;;;;;;;;;4968665;28;20438;-53
2022/09/21 01:06:51;;;;;;;3.30;2.63;;;;;;;;;;4977380;28;21881;-53
2022/09/21 01:09:18;;;;;;;4.90;2.43;;;;;;;;;;4940015;28;21179;-54
2022/09/21 01:12:03;;;;;;;4.50;2.77;;;;;;;;;;4981000;28;20476;-53
2022/09/21 01:14:32;;;;;;;3.00;2.13;;;;;;;;;;4954355;28;20445;-57
2022/09/21 01:17:01;;;;;;;5.73;2.63;;;;;;;;;;4973021;28;20441;-55
2022/09/21 01:19:30;;;;;;;4.10;3.20;;;;;;;;;;4962606;28;21521;-52
2022/09/21 01:22:25;;;;;;;6.20;3.03;;;;;;;;;;4976268;28;20449;-54
2022/09/21 01:25:04;;;;;;;3.77;2.53;;;;;;;;;;4950120;28;20445;-53
2022/09/21 01:27:33;;;;;;;8.13;3.07;;;;;;;;;;4974102;28;20441;-55
2022/09/21 01:30:12;;;;;;;5.93;2.20;;;;;;;;;;4954475;28;20563;-54
2022/09/21 01:32:40;;;;;;;6.50;3.50;;;;;;;;;;4978868;28;20951;-53
2022/09/21 01:35:09;;;;;;;3.70;2.20;;;;;;;;;;4976684;28;20448;-54
2022/09/21 01:40:41;;;;;;;3.30;2.70;;;;;;;;;;4971441;28;20456;-53
2022/09/21 01:43:07;;;;;;;3.60;2.60;;;;;;;;;;4956887;28;20452;-54
2022/09/21 01:45:34;;;;;;;3.50;2.50;;;;;;;;;;4972152;28;20445;-54
2022/09/21 01:48:16;;;;;;;6.20;2.73;;;;;;;;;;4972926;28;20801;-53
2022/09/21 01:50:52;;;;;;;3.73;2.50;;;;;;;;;;4977988;28;21006;-54
2022/09/21 01:53:19;;;;;;;3.13;2.40;;;;;;;;;;4979640;28;20428;-54
2022/09/21 01:55:46;;;;;;;5.47;2.50;;;;;;;;;;4983339;28;20819;-53
2022/09/21 01:58:35;;;;;;;4.17;2.63;;;;;;;;;;4982844;28;20445;-53
2022/09/21 02:01:07;;;;;;;4.40;2.30;;;;;;;;;;4984259;28;20437;-53
2022/09/21 02:03:40;;;;;;;3.33;2.20;;;;;;;;;;4962932;28;20467;-53
2022/09/21 02:06:07;;;;;;;5.17;2.60;;;;;;;;;;4977414;28;20436;-53
2022/09/21 02:08:34;;;;;;;3.27;2.60;;;;;;;;;;4980705;28;20525;-52
2022/09/21 02:11:00;;;;;;;3.50;2.50;;;;;;;;;;4976742;28;20559;-52
2022/09/21 02:13:26;;;;;;;7.87;2.93;;;;;;;;;;4949664;28;20465;-53
2022/09/21 02:16:28;;;;;;;8.20;2.67;;;;;;;;;;4962329;28;21298;-53
2022/09/21 02:19:09;;;;;;;3.30;2.47;;;;;;;;;;4954763;28;20985;-54
2022/09/21 02:21:42;;;;;;;3.20;2.40;;;;;;;;;;4975650;28;20452;-53
2022/09/21 02:24:21;;;;;;;4.60;3.17;;;;;;;;;;4971952;28;20438;-54
2022/09/21 02:26:54;;;;;;;5.20;2.10;;;;;;;;;;4973506;28;20422;-53
2022/09/21 02:29:39;;;;;;;4.30;2.40;;;;;;;;;;4953868;28;20442;-52
2022/09/21 02:32:17;;;;;;;4.33;2.50;;;;;;;;;;4975163;28;20981;-52
2022/09/21 02:34:44;;;;;;;4.43;2.40;;;;;;;;;;4968794;28;20777;-54
2022/09/21 02:37:12;;;;;;;3.93;2.73;;;;;;;;;;4968460;28;20461;-53
2022/09/21 02:39:38;;;;;;;7.10;2.60;;;;;;;;;;4953861;28;20441;-54
2022/09/21 02:42:12;;;;;;;4.13;2.80;;;;;;;;;;4976726;28;20450;-53
2022/09/21 02:44:51;;;;;;;5.50;4.27;;;;;;;;;;4961213;28;20442;-53
2022/09/21 02:47:18;;;;;;;3.40;2.70;;;;;;;;;;4975713;28;20583;-54
2022/09/21 02:50:28;;;;;;;4.33;2.53;;;;;;;;;;4979813;28;20558;-53
2022/09/21 02:52:55;;;;;;;3.87;2.67;;;;;;;;;;4978521;28;20523;-54
2022/09/21 02:55:21;;;;;;;5.03;2.33;;;;;;;;;;4968929;28;21172;-53
2022/09/21 02:57:53;;;;;;;5.73;3.13;;;;;;;;;;4978216;28;20465;-53
2022/09/21 03:00:28;;;;;;;4.20;3.13;;;;;;;;;;4976744;28;20425;-54
2022/09/21 03:02:54;;;;;;;4.77;3.00;;;;;;;;;;4982215;28;20499;-52
2022/09/21 03:05:20;;;;;;;3.13;2.30;;;;;;;;;;4956514;28;20445;-54
2022/09/21 03:07:47;;;;;;;5.47;2.60;;;;;;;;;;4977745;28;20218;-53
2022/09/21 03:10:13;;;;;;;4.93;2.90;;;;;;;;;;4953365;28;20489;-54
2022/09/21 03:12:45;;;;;;;6.40;3.33;;;;;;;;;;4980617;28;20445;-53
2022/09/21 03:15:28;;;;;;;4.23;2.93;;;;;;;;;;4989651;28;20451;-53
2022/09/21 03:17:54;;;;;;;4.03;2.90;;;;;;;;;;4976176;28;20440;-53
2022/09/21 03:20:20;;;;;;;6.70;3.30;;;;;;;;;;4957792;28;21439;-53
2022/09/21 03:23:03;;;;;;;5.60;2.97;;;;;;;;;;4982713;28;20434;-53
2022/09/21 03:25:32;;;;;;;5.50;2.97;;;;;;;;;;4971542;28;20444;-53
2022/09/21 03:28:04;;;;;;;3.90;3.53;;;;;;;;;;4978342;28;20438;-53
2022/09/21 03:30:35;;;;;;;4.90;3.90;;;;;;;;;;4976198;28;20496;-54
2022/09/21 03:33:02;;;;;;;5.57;3.47;;;;;;;;;;4983392;28;20494;-53
2022/09/21 03:35:28;;;;;;;6.40;4.03;;;;;;;;;;4976897;28;20501;-53
2022/09/21 03:37:54;;;;;;;5.77;4.03;;;;;;;;;;4984050;28;20436;-54
2022/09/21 03:40:20;;;;;;;8.83;4.50;;;;;;;;;;4981386;28;20533;-53
2022/09/21 03:42:46;;;;;;;5.90;3.43;;;;;;;;;;4975831;28;20446;-53
2022/09/21 03:45:12;;;;;;;5.27;3.17;;;;;;;;;;4961548;28;20452;-52
2022/09/21 03:47:40;;;;;;;5.07;3.70;;;;;;;;;;4978677;28;20185;-54
2022/09/21 03:50:12;;;;;;;7.17;3.33;;;;;;;;;;4987603;28;20457;-53
2022/09/21 03:52:40;;;;;;;6.60;3.70;;;;;;;;;;4985346;28;20442;-54
2022/09/21 03:55:07;;;;;;;6.30;4.20;;;;;;;;;;4968616;28;20484;-53
2022/09/21 03:57:34;;;;;;;4.90;3.17;;;;;;;;;;4976535;28;20452;-53
2022/09/21 04:00:01;;;;;;;5.73;3.50;;;;;;;;;;4973738;28;20528;-54
2022/09/21 04:02:31;;;;;;;5.30;4.37;;;;;;;;;;4979215;28;20437;-52
2022/09/21 04:04:57;;;;;;;6.73;4.20;;;;;;;;;;4961595;28;21220;-53
2022/09/21 04:07:34;;;;;;;7.73;4.23;;;;;;;;;;4984600;28;20449;-54
2022/09/21 04:10:04;;;;;;;7.03;4.37;;;;;;;;;;4954185;28;20603;-53
2022/09/21 04:12:33;;;;;;;4.00;3.33;;;;;;;;;;4979296;28;20457;-53
2022/09/21 04:15:06;;;;;;;6.63;4.70;;;;;;;;;;4971803;28;20664;-53
2022/09/21 04:17:32;;;;;;;5.90;3.10;;;;;;;;;;4972666;28;20443;-54
2022/09/21 04:19:58;;;;;;;7.00;4.03;;;;;;;;;;4970102;28;20444;-53
2022/09/21 04:22:25;;;;;;;6.90;4.47;;;;;;;;;;4977737;28;20460;-54
2022/09/21 04:24:57;;;;;;;8.23;3.90;;;;;;;;;;4970623;28;20517;-54
2022/09/21 04:27:25;;;;;;;5.37;3.60;;;;;;;;;;4947896;28;20954;-53
2022/09/21 04:30:14;;;;;;;6.30;4.07;;;;;;;;;;4970811;28;20468;-52
2022/09/21 04:35:43;;;;;;;5.87;4.30;;;;;;;;;;4951207;28;20607;-53
2022/09/21 04:38:37;;;;;;;5.67;4.57;;;;;;;;;;4981541;28;20528;-54
2022/09/21 04:41:10;;;;;;;9.80;5.07;;;;;;;;;;4972113;28;20460;-54
2022/09/21 04:43:42;;;;;;;6.73;4.20;;;;;;;;;;4978567;28;20444;-51
2022/09/21 04:46:21;;;;;;;7.57;5.47;;;;;;;;;;4964223;28;20555;-53
2022/09/21 04:48:47;;;;;;;8.70;4.63;;;;;;;;;;4969878;28;20442;-53
2022/09/21 04:51:36;;;;;;;9.47;4.80;;;;;;;;;;4978488;28;20524;-53
2022/09/21 04:54:09;;;;;;;6.57;4.80;;;;;;;;;;4973550;28;20445;-55
2022/09/21 04:56:47;;;;;;;8.03;4.60;;;;;;;;;;4954089;28;20460;-54
2022/09/21 05:02:24;;;;;;;13.07;4.20;;;;;;;;;;4975705;28;20444;-53
2022/09/21 05:04:54;;;;;;;6.23;4.30;;;;;;;;;;4957162;28;20586;-54
2022/09/21 05:07:20;;;;;;;8.57;5.30;;;;;;;;;;4972666;28;20441;-53
2022/09/21 05:10:01;;;;;;;7.63;5.60;;;;;;;;;;4960942;28;20526;-55
2022/09/21 05:12:56;;;;;;;8.17;4.60;;;;;;;;;;4979464;28;20433;-54
2022/09/21 05:15:30;;;;;;;9.50;5.13;;;;;;;;;;4951373;28;20484;-54
2022/09/21 05:17:56;;;;;;;8.73;4.93;;;;;;;;;;4979831;28;20434;-52
2022/09/21 05:20:23;;;;;;;8.97;5.83;;;;;;;;;;4956624;28;20441;-53
2022/09/21 05:22:49;;;;;;;7.50;4.60;;;;;;;;;;4977389;28;20547;-52
2022/09/21 05:25:15;;;;;;;13.37;5.37;;;;;;;;;;4974031;28;20520;-56
2022/09/21 05:27:41;;;;;;;10.83;4.90;;;;;;;;;;4982269;28;20437;-54
2022/09/21 05:30:25;;;;;;;8.37;5.83;;;;;;;;;;4971981;28;21221;-54
2022/09/21 05:33:01;;;;;;;8.57;5.77;;;;;;;;;;4982760;28;20471;-53
2022/09/21 05:35:29;;;;;;;7.50;4.40;;;;;;;;;;4978521;28;20865;-53
2022/09/21 05:37:57;;;;;;;8.90;5.40;;;;;;;;;;4976343;28;20454;-53
2022/09/21 05:40:32;;;;;;;9.47;5.73;;;;;;;;;;4991654;28;20961;-54
2022/09/21 05:43:03;;;;;;;10.00;5.97;;;;;;;;;;4955644;28;20457;-53
2022/09/21 05:45:29;;;;;;;8.10;4.93;;;;;;;;;;4961556;28;20464;-53
2022/09/21 05:48:13;;;;;;;6.73;5.30;;;;;;;;;;4973899;28;21058;-54
2022/09/21 05:50:42;;;;;;;8.53;5.80;;;;;;;;;;4984427;28;20476;-52
2022/09/21 05:53:30;;;;;;;9.10;6.20;;;;;;;;;;4980950;28;20441;-53
2022/09/21 05:56:17;;;;;;;9.03;5.20;;;;;;;;;;4981938;28;20445;-54
2022/09/21 05:58:51;;;;;;;12.20;6.63;;;;;;;;;;4970684;28;20832;-54
2022/09/21 06:01:21;;;;;;;9.60;6.20;;;;;;;;;;4984557;28;20641;-52
2022/09/21 06:03:48;;;;;;;7.27;6.17;;;;;;;;;;4984493;28;20440;-53
2022/09/21 06:06:44;;;;;;;9.20;7.30;;;;;;;;;;4979400;28;20445;-52
2022/09/21 06:09:15;;;;;;;7.90;6.50;;;;;;;;;;4958200;28;20443;-53
2022/09/21 06:11:41;;;;;;;7.83;6.10;;;;;;;;;;4984065;28;20520;-52
2022/09/21 06:14:08;;;;;;;8.47;6.70;;;;;;;;;;4978441;28;20498;-53
2022/09/21 06:16:37;;;;;;;10.20;6.63;;;;;;;;;;4971757;28;20954;-53
2022/09/21 06:19:04;;;;;;;13.57;8.30;;;;;;;;;;4961812;28;20486;-55
2022/09/21 06:21:30;;;;;;;8.30;6.50;;;;;;;;;;4982620;28;21058;-55
2022/09/21 06:23:56;;;;;;;11.13;6.37;;;;;;;;;;4952886;28;20452;-54
2022/09/21 06:26:21;;;;;;;14.77;6.77;;;;;;;;;;4980098;28;20493;-53
2022/09/21 06:28:47;;;;;;;12.63;7.17;;;;;;;;;;4958586;28;20453;-52
2022/09/21 06:31:13;;;;;;;9.53;6.27;;;;;;;;;;4979817;28;20521;-53
2022/09/21 06:33:39;;;;;;;14.63;8.50;;;;;;;;;;4956318;28;20938;-53
2022/09/21 06:36:05;;;;;;;8.87;6.77;;;;;;;;;;4946146;28;20548;-53
2022/09/21 06:38:34;;;;;;;9.70;6.50;;;;;;;;;;4979369;28;20496;-52
2022/09/21 06:41:03;;;;;;;10.17;6.23;;;;;;;;;;4976886;28;20433;-53
2022/09/21 06:43:33;;;;;;;19.43;7.30;;;;;;;;;;4960256;28;20834;-53
2022/09/21 06:46:15;;;;;;;7.63;6.07;;;;;;;;;;4961259;28;20519;-55
2022/09/21 06:48:44;;;;;;;9.27;7.07;;;;;;;;;;4971798;28;20445;-52
2022/09/21 06:51:14;;;;;;;10.93;7.00;;;;;;;;;;4976544;28;20488;-54
2022/09/21 06:53:40;;;;;;;12.60;5.87;;;;;;;;;;4972528;28;20458;-52
2022/09/21 06:56:08;;;;;;;7.93;5.93;;;;;;;;;;4975894;28;20456;-53
2022/09/21 06:58:42;;;;;;;10.07;8.37;;;;;;;;;;4983841;28;20433;-53
2022/09/21 07:01:11;;;;;;;11.47;8.30;;;;;;;;;;4943461;28;20455;-53
2022/09/21 07:06:44;;;;;;;10.87;8.03;;;;;;;;;;4980925;28;20479;-53
2022/09/21 07:09:16;;;;;;;8.63;6.40;;;;;;;;;;4985452;28;20430;-53
2022/09/21 07:12:08;;;;;;;8.70;7.13;;;;;;;;;;4978483;28;20757;-53
2022/09/21 07:14:59;;;;;;;10.60;7.80;;;;;;;;;;4976610;28;20437;-53
2022/09/21 07:20:34;;;;;;;9.67;7.17;;;;;;;;;;4980278;28;20421;-53
2022/09/21 07:23:21;;;;;;;14.57;8.03;;;;;;;;;;4981784;28;20471;-53
2022/09/21 07:26:05;;;;;;;15.57;7.37;;;;;;;;;;4981428;28;20433;-54
2022/09/21 07:28:43;;;;;;;11.60;6.93;;;;;;;;;;4965419;28;20622;-54
2022/09/21 07:31:14;;;;;;;9.03;6.50;;;;;;;;;;4980029;28;20480;-54
2022/09/21 07:34:02;;;;;;;8.93;6.77;;;;;;;;;;4985494;28;20457;-54
2022/09/21 07:36:49;;;;;;;9.90;5.77;;;;;;;;;;4976672;28;20429;-53
2022/09/21 07:39:29;;;;;;;9.33;6.80;;;;;;;;;;4972365;28;20461;-55
2022/09/21 07:45:10;;;;;;;10.87;7.60;;;;;;;;;;4975707;28;20864;-54
2022/09/21 07:48:04;;;;;;;7.33;5.10;;;;;;;;;;4981130;28;20437;-54
2022/09/21 07:50:44;;;;;;;9.33;6.67;;;;;;;;;;4974668;28;20473;-59
2022/09/21 07:53:18;;;;;;;15.57;6.90;;;;;;;;;;4980164;28;20447;-60
2022/09/21 07:55:44;;;;;;;10.13;5.63;;;;;;;;;;4979600;28;20422;-60
2022/09/21 08:01:05;;;;;;;7.07;5.20;;;;;;;;;;4984263;28;20548;-61
2022/09/21 08:03:31;;;;;;;6.13;5.10;;;;;;;;;;4967928;28;20507;-60
2022/09/21 08:06:03;;;;;;;7.10;4.90;;;;;;;;;;4981015;28;20429;-59
2022/09/21 08:08:29;;;;;;;9.00;4.53;;;;;;;;;;4974809;28;21025;-59
2022/09/21 08:11:15;;;;;;;5.23;3.53;;;;;;;;;;4983070;28;20615;-59
2022/09/21 08:14:10;;;;;;;6.97;4.10;;;;;;;;;;4977212;28;20437;-61
2022/09/21 08:16:39;;;;;;;6.17;3.80;;;;;;;;;;4976631;28;20460;-60
2022/09/21 08:19:13;;;;;;;6.90;3.43;;;;;;;;;;4979819;28;20431;-60
2022/09/21 08:21:43;;;;;;;7.67;4.03;;;;;;;;;;4972793;28;20822;-59
2022/09/21 08:24:11;;;;;;;6.00;3.93;;;;;;;;;;4979279;28;20433;-61
2022/09/21 08:26:51;;;;;;;9.43;3.87;;;;;;;;;;4975685;28;21310;-59
2022/09/21 08:29:19;;;;;;;6.20;5.00;;;;;;;;;;4979987;28;20451;-60
2022/09/21 08:31:45;;;;;;;4.60;3.37;;;;;;;;;;4994138;28;20480;-60
2022/09/21 08:34:14;;;;;;;5.50;3.00;;;;;;;;;;4984126;28;20779;-62
2022/09/21 08:36:45;;;;;;;6.57;3.53;;;;;;;;;;4985128;28;20437;-58
2022/09/21 08:39:13;;;;;;;8.00;3.70;;;;;;;;;;4987473;28;20445;-60
2022/09/21 08:41:50;;;;;;;5.27;3.97;;;;;;;;;;4980542;28;20658;-59
2022/09/21 08:44:47;;;;;;;7.30;3.57;;;;;;;;;;4967167;28;21253;-60
2022/09/21 08:47:19;;;;;;;4.67;3.43;;;;;;;;;;4980694;28;21115;-58
2022/09/21 08:50:22;;;;;;;5.40;3.70;;;;;;;;;;4978368;28;20505;-59
2022/09/21 08:56:02;;;;;;;5.33;3.00;;;;;;;;;;4988118;28;20440;-59
2022/09/21 08:58:30;;;;;;;4.30;3.23;;;;;;;;;;4982991;28;20453;-60
2022/09/21 09:01:15;;;;;;;4.47;2.93;;;;;;;;;;4954552;28;20473;-60
2022/09/21 09:03:51;;;;;;;7.60;3.70;;;;;;;;;;4979085;28;20444;-61
2022/09/21 09:06:32;;;;;;;4.73;2.20;;;;;;;;;;4971234;28;20449;-61
2022/09/21 09:09:07;;;;;;;3.20;2.50;;;;;;;;;;4983224;28;20433;-60
2022/09/21 09:11:40;;;;;;;4.50;2.23;;;;;;;;;;4980859;28;20752;-60
2022/09/21 09:14:25;;;;;;;7.40;2.63;;;;;;;;;;4978683;28;20478;-60
2022/09/21 09:17:15;;;;;;;3.83;2.73;;;;;;;;;;4984685;28;20484;-60
2022/09/21 09:19:46;;;;;;;4.00;2.97;;;;;;;;;;4981836;28;20929;-61
2022/09/21 09:22:13;;;;;;;3.40;2.40;;;;;;;;;;4956954;28;20503;-60
2022/09/21 09:24:50;;;;;;;3.67;2.30;;;;;;;;;;4981501;28;20617;-61
2022/09/21 09:27:24;;;;;;;4.37;3.20;;;;;;;;;;4962430;28;20449;-60
2022/09/21 09:29:52;;;;;;;4.00;2.50;;;;;;;;;;4991274;28;20467;-60
2022/09/21 09:32:34;;;;;;;3.93;2.00;;;;;;;;;;4968117;28;20512;-60
2022/09/21 09:35:26;;;;;;;4.13;1.87;;;;;;;;;;4987145;28;20463;-60
2022/09/21 09:38:10;;;;;;;2.63;1.60;;;;;;;;;;4993209;28;21410;-61
2022/09/21 09:41:12;;;;;;;2.23;1.40;;;;;;;;;;4986748;28;20452;-60
2022/09/21 09:44:01;;;;;;;2.63;1.63;;;;;;;;;;4982872;28;20452;-60
2022/09/21 09:46:28;;;;;;;2.30;1.83;;;;;;;;;;4971870;28;20444;-59
2022/09/21 09:49:14;;;;;;;4.43;4.03;;;;;;;;;;4987699;28;20433;-59
2022/09/21 09:51:41;;;;;;;5.30;2.43;;;;;;;;;;4980844;28;20504;-58
2022/09/21 09:54:13;;;;;;;3.40;1.50;;;;;;;;;;4987051;28;20462;-59
2022/09/21 09:56:52;;;;;;;3.40;1.63;;;;;;;;;;4985825;28;20811;-61
2022/09/21 09:59:30;;;;;;;2.53;1.87;;;;;;;;;;4981723;28;20529;-60
2022/09/21 10:02:03;;;;;;;2.00;1.50;;;;;;;;;;4979578;28;20421;-61
2022/09/21 10:04:30;;;;;;;3.23;1.73;;;;;;;;;;4984437;28;20457;-61
2022/09/21 10:06:58;;;;;;;5.07;1.60;;;;;;;;;;4983682;28;20444;-60
2022/09/21 10:09:35;;;;;;;3.50;1.43;;;;;;;;;;4986078;28;20958;-59
2022/09/21 10:12:30;;;;;;;3.73;1.63;;;;;;;;;;4983015;28;20471;-62
2022/09/21 10:15:13;;;;;;;2.43;1.80;;;;;;;;;;4979505;28;20444;-61
2022/09/21 10:18:16;;;;;;;2.03;1.80;;;;;;;;;;4984882;28;20455;-61
2022/09/21 10:21:20;;;;;;;2.20;1.30;;;;;;;;;;4979777;28;20488;-60
2022/09/21 10:24:09;;;;;;;3.40;1.20;;;;;;;;;;4977144;28;20438;-61
2022/09/21 10:27:05;;;;;;;2.63;1.40;;;;;;;;;;4976761;28;20449;-62
2022/09/21 10:32:42;;;;;;;2.40;1.57;;;;;;;;;;4966767;28;20496;-61
2022/09/21 10:38:37;;;;;;;2.00;1.30;;;;;;;;;;4980987;28;20444;-60
2022/09/21 10:41:44;;;;;;;3.70;1.43;;;;;;;;;;4979198;28;20528;-59
2022/09/21 10:44:25;;;;;;;4.07;1.57;;;;;;;;;;4975007;28;20445;-58
2022/09/21 10:47:15;;;;;;;3.60;1.70;;;;;;;;;;4979242;28;20472;-60
2022/09/21 10:49:50;;;;;;;1.73;1.10;;;;;;;;;;4975410;28;20433;-58
2022/09/21 10:52:20;;;;;;;4.70;1.37;;;;;;;;;;4978453;28;20458;-58
2022/09/21 10:54:51;;;;;;;1.70;1.10;;;;;;;;;;4953288;28;20530;-59
2022/09/21 10:57:18;;;;;;;3.07;1.67;;;;;;;;;;4978581;28;20441;-59
2022/09/21 11:00:04;;;;;;;2.37;1.40;;;;;;;;;;4960767;28;21671;-59
2022/09/21 11:05:48;;;;;;;;;;;;;;;;;;;;;
2022/09/21 11:08:20;;;;;;;1.27;0.77;;;;;;;;;;4947874;28;20705;-60
2022/09/21 11:10:53;;;;;;;1.50;0.93;;;;;;;;;;4956071;28;20493;-59
2022/09/21 11:13:23;;;;;;;2.60;1.10;;;;;;;;;;4941798;28;20471;-63
2022/09/21 11:16:01;;;;;;;1.93;0.97;;;;;;;;;;4960547;28;20453;-60
2022/09/21 11:18:36;;;;;;;1.97;1.00;;;;;;;;;;4936782;28;20441;-59
2022/09/21 11:21:02;;;;;;;1.70;0.90;;;;;;;;;;4965447;28;20471;-58
2022/09/21 11:23:35;;;;;;;6.10;1.90;;;;;;;;;;4934788;28;20600;-61
2022/09/21 11:26:02;;;;;;;4.10;1.70;;;;;;;;;;4959940;28;20456;-57
2022/09/21 11:28:45;;;;;;;2.43;1.60;;;;;;;;;;4968765;28;20527;-58
2022/09/21 11:31:24;;;;;;;2.27;1.40;;;;;;;;;;4972563;28;26509;-57
2022/09/21 11:34:30;;;;;;;2.43;1.67;;;;;;;;;;4903996;28;21287;-61
2022/09/21 11:37:52;;;;;;;2.20;1.40;;;;;;;;;;4917977;28;24315;-59
2022/09/21 11:40:35;;;;;;;2.73;1.60;;;;;;;;;;4908343;28;21348;-61
2022/09/21 11:43:16;;;;;;;2.00;1.40;;;;;;;;;;4929038;28;21725;-60
2022/09/21 11:45:49;;;;;;;2.00;1.43;;;;;;;;;;4892321;28;20556;-61
2022/09/21 11:48:40;;;;;;;1.50;0.90;;;;;;;;;;4961332;28;20527;-61
2022/09/21 11:51:20;;;;;;;2.70;1.53;;;;;;;;;;4967647;28;20612;-62
2022/09/21 11:57:00;;;;;;;3.90;1.50;;;;;;;;;;4966782;28;20456;-65
2022/09/21 11:59:52;;;;;;;3.00;1.13;;;;;;;;;;4965498;28;20468;-60
2022/09/21 12:02:49;;;;;;;4.00;1.50;;;;;;;;;;4965635;28;20490;-62
2022/09/21 12:05:39;;;;;;;2.10;1.03;;;;;;;;;;4959158;28;21075;-61
2022/09/21 12:08:27;;;;;;;4.10;1.33;;;;;;;;;;4965786;28;20938;-62
2022/09/21 12:11:21;;;;;;;2.00;1.30;;;;;;;;;;4964900;28;20651;-61
2022/09/21 12:14:06;;;;;;;3.43;1.33;;;;;;;;;;4967783;28;20991;-61
2022/09/21 12:16:48;;;;;;;3.07;1.17;;;;;;;;;;4936097;28;20559;-62
2022/09/21 12:19:17;;;;;;;1.67;0.87;;;;;;;;;;4968995;28;20454;-61
2022/09/21 12:21:45;;;;;;;1.80;0.90;;;;;;;;;;4946667;28;20455;-61
2022/09/21 12:24:13;;;;;;;4.03;1.30;;;;;;;;;;4970516;28;20448;-61
2022/09/21 12:26:49;;;;;;;2.80;0.90;;;;;;;;;;4941292;28;20462;-60
2022/09/21 12:29:38;;;;;;;3.40;1.13;;;;;;;;;;4970767;28;20446;-61
2022/09/21 12:32:18;;;;;;;3.23;1.30;;;;;;;;;;4929295;28;20487;-60
2022/09/21 12:35:40;;;;;;;1.60;1.00;;;;;;;;;;4983830;28;20942;-61
2022/09/21 12:38:30;;;;;;;1.87;1.00;;;;;;;;;;4920524;28;21204;-61
2022/09/21 12:41:14;;;;;;;1.47;0.90;;;;;;;;;;4926923;28;20453;-61
2022/09/21 12:43:52;;;;;;;1.73;0.97;;;;;;;;;;4961914;28;20476;-61
2022/09/21 12:46:46;;;;;;;1.83;0.80;;;;;;;;;;4931003;28;20518;-59
2022/09/21 12:49:42;;;;;;;2.00;0.87;;;;;;;;;;4953236;28;20445;-59
2022/09/21 12:52:08;;;;;;;2.53;1.40;;;;;;;;;;4937887;28;20980;-60
2022/09/21 12:54:37;;;;;;;3.00;1.23;;;;;;;;;;4961981;28;20846;-60
2022/09/21 12:57:20;;;;;;;3.00;1.00;;;;;;;;;;4931938;28;21287;-59
2022/09/21 12:59:54;;;;;;;4.70;1.00;;;;;;;;;;4959216;28;20882;-62
2022/09/21 13:02:23;;;;;;;1.70;0.80;;;;;;;;;;4928060;28;20439;-60
2022/09/21 13:07:39;;;;;;;2.10;0.93;;;;;;;;;;4917038;28;20445;-59
2022/09/21 13:10:42;;;;;;;2.03;0.77;;;;;;;;;;4964092;28;20486;-60
2022/09/21 13:13:32;;;;;;;2.63;0.83;;;;;;;;;;4956686;28;20461;-58
2022/09/21 13:15:58;;;;;;;1.10;0.60;;;;;;;;;;4969588;28;20467;-58
2022/09/21 13:18:27;;;;;;;2.77;1.17;;;;;;;;;;4924799;28;21000;-58
2022/09/21 13:20:54;;;;;;;1.60;0.77;;;;;;;;;;4975529;28;20941;-59
2022/09/21 13:23:40;;;;;;;2.63;1.00;;;;;;;;;;4946523;28;20445;-58
2022/09/21 13:26:07;;;;;;;3.40;0.90;;;;;;;;;;4961029;28;21891;-59
2022/09/21 13:28:52;;;;;;;1.40;0.80;;;;;;;;;;4936409;28;20445;-62
2022/09/21 13:31:18;;;;;;;3.10;0.97;;;;;;;;;;4963372;28;20591;-59
2022/09/21 13:34:08;;;;;;;1.30;0.70;;;;;;;;;;4947893;28;20449;-60
2022/09/21 13:36:56;;;;;;;2.13;1.13;;;;;;;;;;4974932;28;20440;-59
2022/09/21 13:39:59;;;;;;;1.50;0.80;;;;;;;;;;4967029;28;20553;-60
2022/09/21 13:42:30;;;;;;;1.40;0.60;;;;;;;;;;4973403;28;20983;-59
2022/09/21 13:45:01;;;;;;;1.87;0.80;;;;;;;;;;4979833;28;20543;-58
2022/09/21 13:47:33;;;;;;;1.60;0.97;;;;;;;;;;4982621;28;20454;-59
2022/09/21 13:50:26;;;;;;;1.50;0.60;;;;;;;;;;4939497;28;20576;-61
2022/09/21 13:52:57;;;;;;;1.83;1.10;;;;;;;;;;4977059;28;20461;-60
2022/09/21 13:55:31;;;;;;;1.60;0.80;;;;;;;;;;4978580;28;20553;-60
2022/09/21 13:58:27;;;;;;;2.07;0.70;;;;;;;;;;4981082;28;20436;-59
2022/09/21 14:00:57;;;;;;;3.23;1.10;;;;;;;;;;4962093;28;20456;-60
2022/09/21 14:03:53;;;;;;;1.67;0.70;;;;;;;;;;4975676;28;21056;-59
2022/09/21 14:06:35;;;;;;;2.20;0.70;;;;;;;;;;4971185;28;20448;-61
2022/09/21 14:09:02;;;;;;;2.10;1.00;;;;;;;;;;4977662;28;20480;-60
2022/09/21 14:11:35;;;;;;;1.20;0.60;;;;;;;;;;4913930;28;20519;-60
2022/09/21 14:14:11;;;;;;;1.90;0.70;;;;;;;;;;4966799;28;20445;-59
2022/09/21 14:16:44;;;;;;;1.83;0.80;;;;;;;;;;4951309;28;22607;-60
2022/09/21 14:19:21;;;;;;;1.50;0.87;;;;;;;;;;4978093;28;20508;-60
2022/09/21 14:22:03;;;;;;;1.60;0.90;;;;;;;;;;4953748;28;20980;-60
2022/09/21 14:24:37;;;;;;;1.67;0.83;;;;;;;;;;4977739;28;20984;-60
2022/09/21 14:27:30;;;;;;;1.80;0.70;;;;;;;;;;4969052;28;20443;-60
2022/09/21 14:29:59;;;;;;;1.43;0.90;;;;;;;;;;4978638;28;20425;-59
2022/09/21 14:32:25;;;;;;;3.10;0.97;;;;;;;;;;4955562;28;20452;-60
2022/09/21 14:34:55;;;;;;;1.93;1.00;;;;;;;;;;4974313;28;20434;-59
2022/09/21 14:37:21;;;;;;;1.30;0.63;;;;;;;;;;4974747;28;20482;-60
2022/09/21 14:39:47;;;;;;;1.77;0.93;;;;;;;;;;4948910;28;20913;-60
2022/09/21 14:42:14;;;;;;;1.97;1.00;;;;;;;;;;4983429;28;20193;-61
2022/09/21 14:44:43;;;;;;;1.57;0.87;;;;;;;;;;4942315;28;22349;-59
2022/09/21 14:47:28;;;;;;;1.83;0.70;;;;;;;;;;4978392;28;20487;-60
2022/09/21 14:50:29;;;;;;;1.47;0.93;;;;;;;;;;4956369;28;20472;-59
2022/09/21 14:52:55;;;;;;;2.07;0.90;;;;;;;;;;4970452;28;20982;-59
2022/09/21 14:55:40;;;;;;;2.23;1.00;;;;;;;;;;4968055;28;20437;-62
2022/09/21 14:58:42;;;;;;;2.17;1.10;;;;;;;;;;4979022;28;20594;-59
2022/09/21 15:01:22;;;;;;;1.70;1.03;;;;;;;;;;4977462;28;20503;-61
2022/09/21 15:03:52;;;;;;;3.50;0.80;;;;;;;;;;4953995;28;20584;-60
2022/09/21 15:11:54;;;;;;;4.00;1.00;;;;;;;;;;4966137;28;20484;-60
2022/09/21 15:14:22;;;;;;;1.73;0.90;;;;;;;;;;4952948;28;20443;-61
2022/09/21 15:16:49;;;;;;;1.40;0.80;;;;;;;;;;4968732;28;20537;-60
2022/09/21 15:19:18;;;;;;;1.97;1.13;;;;;;;;;;4939578;28;21049;-58
2022/09/21 15:21:45;;;;;;;2.03;1.13;;;;;;;;;;4979432;28;20969;-60
2022/09/21 15:24:23;;;;;;;1.50;0.93;;;;;;;;;;4963895;28;21214;-57
2022/09/21 15:26:55;;;;;;;4.20;1.00;;;;;;;;;;4983554;28;20487;-59
2022/09/21 15:29:27;;;;;;;1.30;0.63;;;;;;;;;;4955475;28;20441;-58
2022/09/21 15:32:01;;;;;;;2.63;1.00;;;;;;;;;;4964826;28;20543;-60
2022/09/21 15:34:28;;;;;;;1.97;0.93;;;;;;;;;;4949367;28;20533;-60
2022/09/21 15:36:54;;;;;;;1.73;1.20;;;;;;;;;;4973608;28;20445;-59
2022/09/21 15:39:25;;;;;;;1.40;0.90;;;;;;;;;;4964799;28;20440;-59
2022/09/21 15:42:09;;;;;;;2.00;1.00;;;;;;;;;;4970639;28;20447;-58
2022/09/21 15:45:14;;;;;;;3.47;0.83;;;;;;;;;;4968024;28;20445;-60
2022/09/21 15:47:44;;;;;;;1.30;0.70;;;;;;;;;;4976614;28;21223;-60
2022/09/21 15:50:29;;;;;;;2.33;1.03;;;;;;;;;;4971051;28;20471;-59
2022/09/21 15:53:03;;;;;;;1.60;0.80;;;;;;;;;;4972118;28;20444;-59
2022/09/21 15:56:07;;;;;;;1.90;0.80;;;;;;;;;;4986729;28;20434;-60
2022/09/21 15:58:41;;;;;;;1.50;0.90;;;;;;;;;;4978914;28;20970;-59
2022/09/21 16:01:22;;;;;;;1.23;0.73;;;;;;;;;;4969550;28;20447;-57
2022/09/21 16:04:05;;;;;;;1.40;0.90;;;;;;;;;;4973251;28;20536;-59
2022/09/21 16:06:40;;;;;;;1.70;0.90;;;;;;;;;;4965637;28;20449;-59
2022/09/21 16:09:25;;;;;;;3.20;1.00;;;;;;;;;;4974361;28;20437;-59
2022/09/21 16:11:51;;;;;;;1.50;0.70;;;;;;;;;;4967975;28;20506;-60
2022/09/21 16:17:10;;;;;;;1.83;0.70;;;;;;;;;;4971760;28;20541;-58
2022/09/21 16:20:10;;;;;;;1.10;0.60;;;;;;;;;;4971935;28;20968;-59
2022/09/21 16:22:35;;;;;;;2.10;0.73;;;;;;;;;;4918339;28;20491;-60
2022/09/21 16:25:03;;;;;;;1.40;0.73;;;;;;;;;;4970751;28;20499;-58